LGKO/KGS METAR and TAF weather

Enter ICAO airport designator
Station Type Date Time Source
LGKO METAR 2020/04/06 13:50 UTC NOAA

LGKO 061350Z 20009KT 9999 SCT025 18/12 Q1015


Station Type Date Time Source
LGKO Decoded METAR 2020/04/06 13:50 UTC NOAA

Kos Airport , Greece (LGKO) 36-47N 027-04E
Apr 06, 2020 - 09:50 AM EDT / 2020.04.06 1350 UTC
Wind: from the SSW (200 degrees) at 10 MPH (9 KT):0
Visibility: greater than 7 mile(s):0
Sky conditions: partly cloudy
Temperature: 64 F (18 C)
Dew Point: 53 F (12 C)
Relative Humidity: 67%
Pressure (altimeter): 29.97 in. Hg (1015 hPa)
ob: LGKO 061350Z 20009KT 9999 SCT025 18/12 Q1015
cycle: 14

Station Type Date Time Source
LGKO TAF 2020/04/06 12:13 UTC NOAA

TAF LGKO 061100Z 0612/0712 22011KT 9999 FEW015 SCT025 PROB40
TEMPO 0612/0624 5000 RA SCT008 BKN020 PROB30
TEMPO 0612/0618 3000 TSRA SCT010 FEW018CB BKN025
BECMG 0618/0620 16010KT
BECMG 0702/0704 08010KT
BECMG 0706/0708 01010KT

Example: see airport list